Time;durP1;ratioP1;P1;durP2;ratioP2;P2;SDS_P1;SDS_P2;PMS_P1;PMS_P2;Temp;Humidity;BMP_temperature;BMP_pressure;BME280_temperature;BME280_humidity;BME280_pressure;Samples;Min_cycle;Max_cycle;Signal;HPM_P1;HPM_P2
2022/08/19 00:00:35;;;;;;;6.70;5.68;;;18.10;99.90;;;;;;5066990;28;20102;-60
2022/08/19 00:03:02;;;;;;;10.90;6.35;;;18.10;99.90;;;;;;5072575;28;20501;-59
2022/08/19 00:05:27;;;;;;;7.88;6.88;;;18.10;99.90;;;;;;5071122;28;20032;-58
2022/08/19 00:07:53;;;;;;;11.10;6.70;;;18.10;99.90;;;;;;5072747;28;20059;-59
2022/08/19 00:10:20;;;;;;;10.60;7.30;;;18.10;99.90;;;;;;5065144;28;20045;-58
2022/08/19 00:12:46;;;;;;;9.85;7.05;;;18.00;99.90;;;;;;5072325;28;20028;-59
2022/08/19 00:15:16;;;;;;;9.20;7.15;;;18.00;99.90;;;;;;5072211;28;20357;-59
2022/08/19 00:17:43;;;;;;;9.98;6.43;;;17.90;99.90;;;;;;5072308;28;20079;-59
2022/08/19 00:20:11;;;;;;;8.25;6.93;;;17.90;99.90;;;;;;5063974;28;20393;-59
2022/08/19 00:22:38;;;;;;;10.38;7.88;;;17.90;99.90;;;;;;5071858;28;20579;-59
2022/08/19 00:25:05;;;;;;;10.18;7.82;;;17.80;99.90;;;;;;5071457;28;20048;-59
2022/08/19 00:27:31;;;;;;;9.07;7.25;;;17.80;99.90;;;;;;5072188;28;20044;-60
2022/08/19 00:29:58;;;;;;;9.93;7.30;;;17.80;99.90;;;;;;5066014;28;20469;-59
2022/08/19 00:32:25;;;;;;;9.98;7.43;;;17.80;99.90;;;;;;5064525;28;20465;-59
2022/08/19 00:34:52;;;;;;;8.70;7.15;;;17.80;99.90;;;;;;5071836;28;20043;-59
2022/08/19 00:37:19;;;;;;;9.57;7.97;;;17.70;99.90;;;;;;5072347;28;20040;-58
2022/08/19 00:39:45;;;;;;;9.20;7.35;;;17.70;99.90;;;;;;5069665;28;20036;-59
2022/08/19 00:42:13;;;;;;;8.68;7.55;;;17.70;99.90;;;;;;5072083;28;20052;-59
2022/08/19 00:44:39;;;;;;;9.70;7.68;;;17.60;99.90;;;;;;5071941;28;20162;-59
2022/08/19 00:47:05;;;;;;;11.27;8.43;;;17.60;99.90;;;;;;5070917;28;20116;-58
2022/08/19 00:56:53;;;;;;;9.15;7.65;;;17.50;99.90;;;;;;5071148;28;20416;-59
2022/08/19 00:59:20;;;;;;;10.40;7.88;;;17.50;99.90;;;;;;5070841;28;20040;-59
2022/08/19 01:01:46;;;;;;;9.63;8.05;;;17.50;99.90;;;;;;5062478;28;20132;-59
2022/08/19 01:04:12;;;;;;;10.48;7.82;;;17.50;99.90;;;;;;5071764;28;20036;-59
2022/08/19 01:14:00;;;;;;;9.45;8.02;;;17.40;99.90;;;;;;5071344;28;20376;-59
2022/08/19 01:16:27;;;;;;;10.95;8.40;;;17.30;99.90;;;;;;5071271;28;20036;-59
2022/08/19 01:18:53;;;;;;;10.05;8.00;;;17.30;99.90;;;;;;5071503;28;20044;-59
2022/08/19 01:21:31;;;;;;;9.38;8.10;;;17.30;99.90;;;;;;5062870;28;20041;-59
2022/08/19 01:23:58;;;;;;;10.25;8.23;;;17.20;99.90;;;;;;5071150;28;20047;-60
2022/08/19 01:26:25;;;;;;;9.98;8.55;;;17.20;99.90;;;;;;5070754;28;20118;-59
2022/08/19 01:28:54;;;;;;;8.70;7.40;;;17.20;99.90;;;;;;5071479;28;20112;-58
2022/08/19 01:31:44;;;;;;;10.32;8.25;;;17.20;99.90;;;;;;5056834;28;20105;-58
2022/08/19 01:34:10;;;;;;;11.38;9.07;;;17.20;99.90;;;;;;5068843;28;20059;-59
2022/08/19 01:36:47;;;;;;;10.55;8.73;;;17.20;99.90;;;;;;5068371;28;20048;-59
2022/08/19 01:39:16;;;;;;;13.98;8.75;;;17.10;99.90;;;;;;5068992;28;20052;-59
2022/08/19 01:41:42;;;;;;;13.45;9.35;;;17.10;99.90;;;;;;5067162;28;20041;-59
2022/08/19 01:44:09;;;;;;;10.50;9.40;;;17.10;99.90;;;;;;5068804;28;20052;-58
2022/08/19 01:46:35;;;;;;;12.85;9.63;;;17.10;99.90;;;;;;5051525;28;20616;-59
2022/08/19 01:49:03;;;;;;;11.50;8.85;;;17.00;99.90;;;;;;5068821;28;20123;-59
2022/08/19 01:51:30;;;;;;;11.65;9.25;;;17.00;99.90;;;;;;5065253;28;20059;-59
2022/08/19 01:53:56;;;;;;;13.43;9.95;;;17.00;99.90;;;;;;5068670;28;20120;-60
2022/08/19 02:14:46;;;;;;;14.48;10.65;;;16.80;99.90;;;;;;5074310;28;20031;-59
2022/08/19 02:17:12;;;;;;;11.98;10.45;;;16.70;99.90;;;;;;5074824;28;20040;-58
2022/08/19 02:19:38;;;;;;;14.15;10.52;;;16.70;99.90;;;;;;5071810;28;20584;-58
2022/08/19 02:22:04;;;;;;;13.18;10.68;;;16.70;99.90;;;;;;5069522;28;20040;-59
2022/08/19 02:24:29;;;;;;;12.20;10.90;;;16.70;99.90;;;;;;5074379;28;20414;-59
2022/08/19 02:26:55;;;;;;;12.10;10.82;;;16.70;99.90;;;;;;5074341;28;20442;-59
2022/08/19 02:36:39;;;;;;;12.75;10.45;;;16.60;99.90;;;;;;5074258;28;20109;-59
2022/08/19 02:39:04;;;;;;;12.10;10.82;;;16.60;99.90;;;;;;5074096;28;20048;-59
2022/08/19 02:41:32;;;;;;;13.43;11.75;;;16.60;99.90;;;;;;5072943;28;20032;-58
2022/08/19 02:44:00;;;;;;;12.82;11.13;;;16.60;99.90;;;;;;5065067;28;20059;-59
2022/08/19 02:46:29;;;;;;;13.43;11.57;;;16.60;99.90;;;;;;5069526;28;20072;-59
2022/08/19 02:48:59;;;;;;;12.52;11.32;;;16.60;99.90;;;;;;5074201;28;20469;-59
2022/08/19 02:51:34;;;;;;;12.75;11.05;;;16.60;99.90;;;;;;5071351;28;20036;-59
2022/08/19 02:54:00;;;;;;;12.60;10.93;;;16.60;99.90;;;;;;5074143;28;20094;-58
2022/08/19 02:56:27;;;;;;;13.45;11.77;;;16.60;99.90;;;;;;5073919;28;20040;-59
2022/08/19 02:58:54;;;;;;;14.05;11.90;;;16.60;99.90;;;;;;5074070;28;20335;-59
2022/08/19 03:01:27;;;;;;;13.13;11.80;;;16.70;99.90;;;;;;5068448;28;20056;-59
2022/08/19 03:03:53;;;;;;;15.68;12.73;;;16.50;99.90;;;;;;5073962;28;20041;-59
2022/08/19 03:06:20;;;;;;;13.35;11.95;;;16.50;99.90;;;;;;5073519;28;20339;-58
2022/08/19 03:08:48;;;;;;;14.43;11.98;;;16.50;99.90;;;;;;5073974;28;20345;-59
2022/08/19 03:11:19;;;;;;;15.02;12.95;;;16.50;99.90;;;;;;5057181;28;20422;-60
2022/08/19 03:13:45;;;;;;;15.15;11.50;;;16.50;99.90;;;;;;5070334;28;20374;-60
2022/08/19 03:16:12;;;;;;;12.60;11.30;;;16.50;99.90;;;;;;5073723;28;20461;-59
2022/08/19 03:18:38;;;;;;;16.58;12.75;;;16.40;99.90;;;;;;5072361;28;20430;-59
2022/08/19 03:21:05;;;;;;;13.73;12.23;;;16.50;99.90;;;;;;5065811;28;20461;-58
2022/08/19 03:23:30;;;;;;;13.32;11.75;;;16.40;99.90;;;;;;5073558;28;20119;-58
2022/08/19 03:25:56;;;;;;;13.65;12.18;;;16.40;99.90;;;;;;5072794;28;20447;-59
2022/08/19 03:28:22;;;;;;;14.85;12.95;;;16.40;99.90;;;;;;5073567;28;20035;-58
2022/08/19 03:30:57;;;;;;;13.02;11.73;;;16.40;99.90;;;;;;5060645;28;20080;-59
2022/08/19 03:33:27;;;;;;;13.70;12.30;;;16.40;99.90;;;;;;5046055;28;20037;-59
2022/08/19 03:36:09;;;;;;;13.98;12.50;;;16.40;99.90;;;;;;5073130;28;20040;-59
2022/08/19 03:38:38;;;;;;;17.02;13.18;;;16.30;99.90;;;;;;5073300;28;20286;-59
2022/08/19 03:41:07;;;;;;;16.08;12.50;;;16.30;99.90;;;;;;5059630;28;20114;-60
2022/08/19 03:43:35;;;;;;;17.67;13.27;;;16.30;99.90;;;;;;5072859;28;20028;-58
2022/08/19 03:46:07;;;;;;;13.73;12.27;;;16.20;99.90;;;;;;5072842;28;20099;-58
2022/08/19 03:48:33;;;;;;;15.57;12.20;;;16.30;99.90;;;;;;5072860;28;20078;-59
2022/08/19 03:50:59;;;;;;;14.20;12.30;;;16.30;99.90;;;;;;5070953;28;20055;-59
2022/08/19 03:53:29;;;;;;;17.88;12.48;;;16.30;99.90;;;;;;5069855;28;20041;-59
2022/08/19 03:55:56;;;;;;;18.20;13.40;;;16.30;99.90;;;;;;5062709;28;20036;-59
2022/08/19 03:58:22;;;;;;;15.95;12.38;;;16.20;99.90;;;;;;5072873;28;20032;-59
2022/08/19 04:04:29;;;;;;;14.30;11.77;;;16.20;99.90;;;;;;5052754;28;20031;-58
2022/08/19 04:06:56;;;;;;;15.93;12.98;;;16.20;99.90;;;;;;5072823;28;20036;-59
2022/08/19 04:09:22;;;;;;;15.40;12.52;;;16.20;99.90;;;;;;5072836;28;20064;-59
2022/08/19 04:11:54;;;;;;;15.50;13.00;;;16.20;99.90;;;;;;5066751;28;20133;-59
2022/08/19 04:14:23;;;;;;;15.82;12.90;;;16.30;99.90;;;;;;5072620;28;20040;-59
2022/08/19 04:16:49;;;;;;;14.88;12.48;;;16.20;99.90;;;;;;5058611;28;20036;-59
2022/08/19 04:19:17;;;;;;;16.58;13.15;;;16.20;99.90;;;;;;5071975;28;20067;-59
2022/08/19 04:21:47;;;;;;;15.45;13.63;;;16.20;99.90;;;;;;5065306;28;20041;-58
2022/08/19 04:24:14;;;;;;;17.45;13.48;;;16.20;99.90;;;;;;5072109;28;20083;-59
2022/08/19 04:26:40;;;;;;;15.15;12.75;;;16.20;99.90;;;;;;5070727;28;20335;-58
2022/08/19 04:29:09;;;;;;;16.70;12.93;;;16.20;99.90;;;;;;5072445;28;20047;-59
2022/08/19 04:31:39;;;;;;;17.27;13.43;;;16.20;99.90;;;;;;5059043;28;20051;-59
2022/08/19 04:34:10;;;;;;;16.00;13.18;;;16.20;99.90;;;;;;5072336;28;20029;-60
2022/08/19 04:36:37;;;;;;;14.80;13.05;;;16.20;99.90;;;;;;5071547;28;20037;-58
2022/08/19 04:39:07;;;;;;;18.30;13.85;;;16.20;99.90;;;;;;5070779;28;20052;-58
2022/08/19 04:44:17;;;;;;;16.10;12.98;;;16.20;99.90;;;;;;5072267;28;20127;-59
2022/08/19 04:46:44;;;;;;;16.10;12.65;;;16.20;99.90;;;;;;5071154;28;20305;-58
2022/08/19 04:49:11;;;;;;;15.70;12.65;;;16.20;99.90;;;;;;5071625;28;20469;-58
2022/08/19 04:51:39;;;;;;;14.70;12.68;;;16.30;99.90;;;;;;5069772;28;20053;-59
2022/08/19 04:54:05;;;;;;;14.52;12.70;;;16.30;99.90;;;;;;5071759;28;20460;-59
2022/08/19 04:56:31;;;;;;;14.95;13.23;;;16.30;99.90;;;;;;5071080;28;20129;-59
2022/08/19 04:58:57;;;;;;;16.17;13.18;;;16.20;99.90;;;;;;5072095;28;20084;-60
2022/08/19 05:01:26;;;;;;;16.13;13.60;;;16.20;99.90;;;;;;5068299;28;20115;-59
2022/08/19 05:03:52;;;;;;;17.08;13.80;;;16.20;99.90;;;;;;5066616;28;20037;-58
2022/08/19 05:06:20;;;;;;;17.88;14.40;;;16.20;99.90;;;;;;5062450;28;20036;-60
2022/08/19 05:08:46;;;;;;;15.95;12.85;;;16.20;99.90;;;;;;5071535;28;20191;-59
2022/08/19 05:11:19;;;;;;;16.02;11.85;;;16.30;99.90;;;;;;5056684;28;20037;-59
2022/08/19 05:13:48;;;;;;;16.23;14.00;;;16.30;99.90;;;;;;5054061;28;20134;-59
2022/08/19 05:16:15;;;;;;;16.83;13.05;;;16.30;99.90;;;;;;5071496;28;20155;-60
2022/08/19 05:24:10;;;;;;;15.07;12.98;;;16.50;99.90;;;;;;5071180;28;19951;-59
2022/08/19 05:26:37;;;;;;;15.85;13.50;;;16.80;99.90;;;;;;5071102;28;20052;-59
2022/08/19 05:29:04;;;;;;;18.17;13.32;;;17.00;99.90;;;;;;5071243;28;20488;-58
2022/08/19 05:31:30;;;;;;;15.38;12.98;;;17.40;99.90;;;;;;5057693;28;20461;-59
2022/08/19 05:33:58;;;;;;;15.55;13.85;;;18.00;99.90;;;;;;5070861;28;20037;-58
2022/08/19 05:36:28;;;;;;;16.65;13.68;;;18.30;99.90;;;;;;5071266;28;20059;-59
2022/08/19 05:38:55;;;;;;;16.48;13.77;;;18.70;99.90;;;;;;5071761;28;20051;-58
2022/08/19 05:41:29;;;;;;;15.43;13.63;;;19.10;99.90;;;;;;5057000;28;20043;-58
2022/08/19 05:44:00;;;;;;;15.40;12.93;;;19.50;99.90;;;;;;5071591;28;20025;-59
2022/08/19 05:46:26;;;;;;;15.02;13.13;;;20.10;99.90;;;;;;5070980;28;20102;-59
2022/08/19 05:48:52;;;;;;;14.82;13.23;;;20.40;99.90;;;;;;5071704;28;20363;-59
2022/08/19 05:51:17;;;;;;;16.00;13.07;;;20.70;99.90;;;;;;5069821;28;20457;-59
2022/08/19 05:53:45;;;;;;;15.50;13.60;;;21.00;99.90;;;;;;5071047;28;20029;-59
2022/08/19 05:56:15;;;;;;;17.92;13.57;;;21.30;99.90;;;;;;5070483;28;20032;-58
2022/08/19 05:58:44;;;;;;;16.25;12.82;;;21.60;99.90;;;;;;5071204;28;20045;-58
2022/08/19 06:01:13;;;;;;;15.32;12.35;;;21.80;99.90;;;;;;5068333;28;20040;-59
2022/08/19 06:03:40;;;;;;;15.25;13.57;;;22.30;99.90;;;;;;5070728;28;20418;-59
2022/08/19 06:06:08;;;;;;;16.30;12.38;;;22.70;99.90;;;;;;5070708;28;20075;-59
2022/08/19 06:08:36;;;;;;;14.95;13.27;;;22.90;99.90;;;;;;5070944;28;20405;-59
2022/08/19 06:11:20;;;;;;;14.35;12.65;;;23.20;99.90;;;;;;5065282;28;20045;-58
2022/08/19 06:13:50;;;;;;;;;;;23.50;99.90;;;;;;5069373;28;20341;-58
2022/08/19 06:16:23;;;;;;;15.10;13.40;;;23.50;99.90;;;;;;5059781;28;19916;-58
2022/08/19 06:18:53;;;;;;;16.02;14.27;;;23.60;99.90;;;;;;5070922;28;20159;-59
2022/08/19 06:21:21;;;;;;;15.23;13.63;;;23.90;99.90;;;;;;5064835;28;20152;-59
2022/08/19 06:23:47;;;;;;;16.02;13.88;;;24.00;99.90;;;;;;5070767;28;20040;-58
2022/08/19 06:26:14;;;;;;;15.60;14.00;;;23.90;99.90;;;;;;5066855;28;20123;-58
2022/08/19 06:28:46;;;;;;;16.23;13.95;;;23.70;99.90;;;;;;5060119;28;20040;-59
2022/08/19 06:31:17;;;;;;;14.05;12.57;;;23.90;99.90;;;;;;5059400;28;20040;-59
2022/08/19 06:33:44;;;;;;;16.17;12.45;;;24.00;99.90;;;;;;5061820;28;20348;-58
2022/08/19 06:36:29;;;;;;;15.85;13.73;;;24.30;99.90;;;;;;5065440;28;20036;-59
2022/08/19 06:38:57;;;;;;;15.48;13.02;;;24.30;99.90;;;;;;5061107;28;20055;-59
2022/08/19 06:41:24;;;;;;;13.80;12.25;;;24.60;99.90;;;;;;5053212;28;20056;-58
2022/08/19 06:43:50;;;;;;;14.50;13.10;;;24.80;99.90;;;;;;5070862;28;20123;-58
2022/08/19 06:46:18;;;;;;;15.40;13.60;;;24.80;99.90;;;;;;5072900;28;20281;-59
2022/08/19 06:48:44;;;;;;;14.27;12.50;;;25.00;99.90;;;;;;5074120;28;20052;-59
2022/08/19 06:51:10;;;;;;;15.70;12.38;;;24.90;99.90;;;;;;5061243;28;20037;-59
2022/08/19 06:53:36;;;;;;;14.45;12.93;;;25.00;99.90;;;;;;5068033;28;20033;-58
2022/08/19 06:56:02;;;;;;;14.98;12.40;;;25.00;99.90;;;;;;5064036;28;20338;-59
2022/08/19 06:58:31;;;;;;;14.27;12.77;;;25.20;99.90;;;;;;5074277;28;20044;-59
2022/08/19 07:01:02;;;;;;;14.57;13.07;;;25.20;99.90;;;;;;5070753;28;20028;-59
2022/08/19 07:03:34;;;;;;;14.77;12.75;;;25.10;99.90;;;;;;5073745;28;20507;-59
2022/08/19 07:06:09;;;;;;;14.18;12.68;;;25.20;99.90;;;;;;5072316;28;20048;-59
2022/08/19 07:08:36;;;;;;;15.00;12.63;;;25.20;99.90;;;;;;5074053;28;20043;-59
2022/08/19 07:11:06;;;;;;;14.23;12.73;;;25.20;99.90;;;;;;5068426;28;20044;-60
2022/08/19 07:13:36;;;;;;;14.35;12.43;;;25.20;99.90;;;;;;5073797;28;20107;-58
2022/08/19 07:16:10;;;;;;;13.75;12.35;;;25.20;99.90;;;;;;5066353;28;20049;-59
2022/08/19 07:18:37;;;;;;;14.43;12.45;;;25.40;99.90;;;;;;5068165;28;20040;-59
2022/08/19 07:21:15;;;;;;;14.90;13.32;;;25.20;99.90;;;;;;5068015;28;20063;-59
2022/08/19 07:23:41;;;;;;;14.00;12.60;;;25.30;99.90;;;;;;5073330;28;20106;-58
2022/08/19 07:26:16;;;;;;;13.85;12.35;;;25.40;99.90;;;;;;5072644;28;20088;-58
2022/08/19 07:28:44;;;;;;;14.60;13.18;;;25.60;99.90;;;;;;5073652;28;20124;-59
2022/08/19 07:31:17;;;;;;;16.25;13.65;;;25.40;99.90;;;;;;5061867;28;20450;-58
2022/08/19 07:33:44;;;;;;;14.75;13.25;;;25.20;99.90;;;;;;5073678;28;20024;-59
2022/08/19 07:36:12;;;;;;;15.48;13.10;;;25.10;99.90;;;;;;5072590;28;20036;-58
2022/08/19 07:38:39;;;;;;;14.90;13.27;;;24.90;99.90;;;;;;5073353;28;20045;-58
2022/08/19 07:41:05;;;;;;;16.20;13.93;;;24.80;99.90;;;;;;5061051;28;20056;-58
2022/08/19 07:43:31;;;;;;;16.50;14.38;;;24.50;99.90;;;;;;5072860;28;20076;-58
2022/08/19 07:45:57;;;;;;;17.33;14.75;;;24.60;99.90;;;;;;5073053;28;20032;-59
2022/08/19 07:48:28;;;;;;;16.92;14.50;;;24.40;99.90;;;;;;5073487;28;20357;-59
2022/08/19 07:51:04;;;;;;;18.90;15.10;;;24.20;99.90;;;;;;5062649;28;20037;-58
2022/08/19 07:53:32;;;;;;;16.33;14.60;;;24.20;99.90;;;;;;5069356;28;20040;-59
2022/08/19 07:56:03;;;;;;;16.98;15.23;;;24.20;99.90;;;;;;5072590;28;20036;-59
2022/08/19 07:58:31;;;;;;;17.77;15.70;;;24.20;99.90;;;;;;5072908;28;20095;-59
2022/08/19 08:00:57;;;;;;;17.73;15.90;;;24.30;99.90;;;;;;5071154;28;20032;-59
2022/08/19 08:09:10;;;;;;;18.85;16.65;;;24.30;99.90;;;;;;5072912;28;20444;-60
2022/08/19 08:09:11;;;;;;;21.13;18.38;;;24.40;99.90;;;;;;5052724;28;20448;-58
2022/08/19 08:11:48;;;;;;;21.75;18.88;;;24.30;99.90;;;;;;5069129;28;20091;-59
2022/08/19 08:14:15;;;;;;;20.13;18.13;;;24.30;99.90;;;;;;5072508;28;20072;-59
2022/08/19 08:16:41;;;;;;;21.65;19.35;;;24.50;99.90;;;;;;5071700;28;20182;-59
2022/08/19 08:19:07;;;;;;;20.38;18.25;;;24.40;99.90;;;;;;5072490;28;20060;-59
2022/08/19 08:21:34;;;;;;;20.15;18.05;;;24.40;99.90;;;;;;5067318;28;20044;-59
2022/08/19 08:23:59;;;;;;;19.38;16.67;;;24.20;99.90;;;;;;5069262;28;20040;-59
2022/08/19 08:26:26;;;;;;;19.77;17.27;;;24.20;99.90;;;;;;5071360;28;20056;-59
2022/08/19 08:28:53;;;;;;;19.55;17.55;;;24.30;99.90;;;;;;5072577;28;20033;-59
2022/08/19 08:31:18;;;;;;;19.92;17.83;;;24.30;99.90;;;;;;5061539;28;20072;-60
2022/08/19 08:33:45;;;;;;;21.85;18.42;;;24.30;99.90;;;;;;5072355;28;20137;-59
2022/08/19 08:36:13;;;;;;;20.45;18.05;;;24.40;99.90;;;;;;5071570;28;20525;-59
2022/08/19 08:38:41;;;;;;;19.63;17.52;;;24.50;99.90;;;;;;5071829;28;20040;-59
2022/08/19 08:41:22;;;;;;;21.30;17.65;;;24.60;99.90;;;;;;5058294;28;20124;-59
2022/08/19 08:43:51;;;;;;;20.35;16.98;;;24.60;99.90;;;;;;5047778;28;20286;-60
2022/08/19 08:46:45;;;;;;;18.95;15.82;;;24.40;99.90;;;;;;5071247;28;20514;-59
2022/08/19 08:49:14;;;;;;;20.90;17.45;;;24.50;99.90;;;;;;5072166;28;20051;-59
2022/08/19 08:51:48;;;;;;;20.92;17.48;;;24.40;99.90;;;;;;5057856;28;20077;-59
2022/08/19 08:54:20;;;;;;;17.85;16.05;;;24.40;99.90;;;;;;5071615;28;20044;-59
2022/08/19 08:56:49;;;;;;;20.83;16.77;;;24.40;99.90;;;;;;5071773;28;20051;-60
2022/08/19 08:59:24;;;;;;;18.58;16.00;;;24.30;99.90;;;;;;5071897;28;20067;-59
2022/08/19 09:01:50;;;;;;;19.65;17.15;;;24.50;99.90;;;;;;5069939;28;20792;-59
2022/08/19 09:04:16;;;;;;;18.48;15.82;;;24.50;99.90;;;;;;5070189;28;20492;-59
2022/08/19 09:07:07;;;;;;;20.05;17.20;;;24.60;99.90;;;;;;5071369;28;20036;-59
2022/08/19 09:09:39;;;;;;;20.80;15.88;;;24.60;99.90;;;;;;5071043;28;20054;-58
2022/08/19 09:12:45;;;;;;;20.33;16.58;;;24.60;99.90;;;;;;5068606;28;20032;-59
2022/08/19 09:15:14;;;;;;;17.95;15.82;;;24.60;99.90;;;;;;5070686;28;20438;-60
2022/08/19 09:17:40;;;;;;;18.27;16.17;;;24.80;99.90;;;;;;5058246;28;20037;-59
2022/08/19 09:20:23;;;;;;;17.67;15.77;;;24.80;99.90;;;;;;5068493;28;20130;-59
2022/08/19 09:22:49;;;;;;;;;;;24.90;99.90;;;;;;5044747;28;20050;-60
2022/08/19 09:25:18;;;;;;;17.42;14.15;;;24.80;99.90;;;;;;5066658;28;19920;-59
2022/08/19 09:27:44;;;;;;;15.77;13.48;;;24.80;99.90;;;;;;5068510;28;20387;-59
2022/08/19 09:30:18;;;;;;;16.13;14.00;;;24.80;99.90;;;;;;5051158;28;20068;-60
2022/08/19 09:32:45;;;;;;;18.40;14.93;;;24.90;99.90;;;;;;5066227;28;20079;-59
2022/08/19 09:35:12;;;;;;;16.98;14.90;;;24.80;99.90;;;;;;5070810;28;20479;-59
2022/08/19 09:37:39;;;;;;;20.17;14.57;;;24.90;99.90;;;;;;5071204;28;20033;-59
2022/08/19 09:40:06;;;;;;;14.50;13.02;;;25.00;99.90;;;;;;5067911;28;20528;-59
2022/08/19 09:42:33;;;;;;;16.35;13.20;;;24.90;99.90;;;;;;5062676;28;20076;-59
2022/08/19 09:44:59;;;;;;;16.90;14.38;;;25.00;99.90;;;;;;5070704;28;20074;-59
2022/08/19 09:47:25;;;;;;;20.83;17.48;;;24.90;99.90;;;;;;5070296;28;20041;-60
2022/08/19 09:49:50;;;;;;;18.27;15.68;;;24.80;99.90;;;;;;5070477;28;20029;-58
2022/08/19 09:52:17;;;;;;;16.98;14.65;;;24.90;99.90;;;;;;5058540;28;20037;-59
2022/08/19 09:54:43;;;;;;;20.30;16.13;;;24.90;99.90;;;;;;5057047;28;20033;-59
2022/08/19 09:57:09;;;;;;;20.02;16.65;;;25.00;99.90;;;;;;5070509;28;20428;-58
2022/08/19 09:59:35;;;;;;;18.58;16.63;;;25.10;99.90;;;;;;5071186;28;20048;-60
2022/08/19 10:02:00;;;;;;;19.05;17.13;;;25.30;99.90;;;;;;5055862;28;20105;-59
2022/08/19 10:05:47;;;;;;;19.13;16.98;;;25.40;99.90;;;;;;5070552;28;20055;-60
2022/08/19 10:07:12;;;;;;;21.30;18.90;;;25.40;99.90;;;;;;5070652;28;20124;-59
2022/08/19 10:09:39;;;;;;;24.92;20.05;;;25.30;99.90;;;;;;5070004;28;20131;-59
2022/08/19 10:12:05;;;;;;;20.38;18.30;;;25.30;99.90;;;;;;5068092;28;20036;-59
2022/08/19 10:14:31;;;;;;;19.02;17.13;;;25.30;99.90;;;;;;5070118;28;20048;-58
2022/08/19 10:16:57;;;;;;;19.67;17.67;;;25.40;99.90;;;;;;5071100;28;20063;-59
2022/08/19 10:19:23;;;;;;;18.67;16.83;;;25.40;99.90;;;;;;5065482;28;20066;-59
2022/08/19 10:21:48;;;;;;;19.92;17.83;;;25.60;99.90;;;;;;5066953;28;20048;-59
2022/08/19 10:24:14;;;;;;;23.58;19.00;;;25.60;99.90;;;;;;5074032;28;20048;-59
2022/08/19 10:26:47;;;;;;;23.33;19.70;;;25.70;99.90;;;;;;5074653;28;20041;-59
2022/08/19 10:29:15;;;;;;;26.42;19.67;;;25.60;99.90;;;;;;5073906;28;20048;-59
2022/08/19 10:31:41;;;;;;;23.55;19.45;;;25.50;99.90;;;;;;5058529;28;20370;-59
2022/08/19 10:34:07;;;;;;;19.88;17.23;;;25.50;99.90;;;;;;5065407;28;20361;-59
2022/08/19 10:36:37;;;;;;;19.92;16.38;;;25.70;99.90;;;;;;5074568;28;20490;-59
2022/08/19 10:39:08;;;;;;;21.15;16.52;;;25.90;99.90;;;;;;5074433;28;20263;-59
2022/08/19 10:41:37;;;;;;;20.45;15.68;;;25.90;99.90;;;;;;5062928;28;20037;-59
2022/08/19 10:44:08;;;;;;;17.95;15.07;;;25.90;99.90;;;;;;5074107;28;20044;-59
2022/08/19 10:46:37;;;;;;;18.13;16.10;;;26.00;99.90;;;;;;5073997;28;20382;-60
2022/08/19 10:49:05;;;;;;;17.27;15.38;;;25.90;99.90;;;;;;5074324;28;20043;-59
2022/08/19 10:54:17;;;;;;;22.67;18.17;;;25.90;99.90;;;;;;5074009;28;20053;-59
2022/08/19 10:56:51;;;;;;;21.02;18.48;;;25.90;99.90;;;;;;5073886;28;20036;-60
2022/08/19 10:59:21;;;;;;;15.63;14.05;;;25.90;99.90;;;;;;5074198;28;20040;-59
2022/08/19 11:01:47;;;;;;;19.27;15.52;;;25.90;99.90;;;;;;5059459;28;20040;-59
2022/08/19 11:04:15;;;;;;;19.00;16.73;;;26.00;99.90;;;;;;5073553;28;20125;-60
2022/08/19 11:06:43;;;;;;;21.67;18.38;;;26.00;99.90;;;;;;5073933;28;20048;-59
2022/08/19 11:09:10;;;;;;;20.52;18.33;;;26.00;99.90;;;;;;5073980;28;20032;-59
2022/08/19 11:11:40;;;;;;;24.48;21.35;;;26.00;99.90;;;;;;5071766;28;20072;-60
2022/08/19 11:14:12;;;;;;;23.65;21.15;;;26.00;99.90;;;;;;5073146;28;20393;-60
2022/08/19 11:16:38;;;;;;;21.27;19.05;;;26.00;99.90;;;;;;5060815;28;20037;-60
2022/08/19 11:19:05;;;;;;;25.27;20.48;;;26.10;99.90;;;;;;5071844;28;20040;-60
2022/08/19 11:21:33;;;;;;;22.88;20.48;;;25.90;99.90;;;;;;5070062;28;20048;-59
2022/08/19 11:24:03;;;;;;;24.23;18.25;;;25.90;99.90;;;;;;5072988;28;20082;-59
2022/08/19 11:26:30;;;;;;;21.15;15.85;;;25.90;99.90;;;;;;5073760;28;20037;-59
2022/08/19 11:28:57;;;;;;;21.13;17.15;;;26.00;99.90;;;;;;5073836;28;20102;-59
2022/08/19 11:31:27;;;;;;;16.75;15.05;;;25.90;99.90;;;;;;5063494;28;20033;-59
2022/08/19 11:33:53;;;;;;;19.92;17.67;;;25.90;99.90;;;;;;5072059;28;20036;-59
2022/08/19 11:36:20;;;;;;;22.38;19.02;;;26.00;99.90;;;;;;5073798;28;20044;-59
2022/08/19 11:38:48;;;;;;;22.75;20.38;;;26.00;99.90;;;;;;5073254;28;20066;-60
2022/08/19 11:41:15;;;;;;;25.40;20.73;;;26.20;99.90;;;;;;5062367;28;20511;-59
2022/08/19 11:43:41;;;;;;;22.88;18.95;;;26.20;99.90;;;;;;5072853;28;20032;-60
2022/08/19 11:46:09;;;;;;;21.38;18.00;;;26.30;99.90;;;;;;5073116;28;20491;-60
2022/08/19 11:48:36;;;;;;;19.02;17.00;;;26.60;99.90;;;;;;5072912;28;20028;-59
2022/08/19 11:51:10;;;;;;;23.58;20.02;;;26.80;99.90;;;;;;5063033;28;20402;-59
2022/08/19 11:53:37;;;;;;;19.70;17.33;;;26.80;99.90;;;;;;5071090;28;20446;-59
2022/08/19 11:56:04;;;;;;;22.35;18.80;;;26.80;99.90;;;;;;5071984;28;20115;-59
2022/08/19 11:58:30;;;;;;;27.40;20.50;;;26.70;99.90;;;;;;5072857;28;20103;-59
2022/08/19 12:00:56;;;;;;;20.17;16.70;;;26.50;99.90;;;;;;5063939;28;20463;-59
2022/08/19 12:03:22;;;;;;;21.55;16.85;;;26.30;99.90;;;;;;5067452;28;20037;-59
2022/08/19 12:05:49;;;;;;;23.77;18.42;;;26.40;99.90;;;;;;5065200;28;20458;-59
2022/08/19 12:08:16;;;;;;;23.20;18.20;;;26.20;99.90;;;;;;5065788;28;20046;-59
2022/08/19 12:10:42;;;;;;;22.80;17.63;;;26.20;99.90;;;;;;5070639;28;20449;-59
2022/08/19 12:13:08;;;;;;;21.55;18.35;;;26.00;99.90;;;;;;5072766;28;20071;-60
2022/08/19 12:15:40;;;;;;;19.27;16.27;;;26.10;99.90;;;;;;5072142;28;20059;-59
2022/08/19 12:18:07;;;;;;;15.00;13.32;;;26.20;99.90;;;;;;5072701;28;20041;-59
2022/08/19 12:20:38;;;;;;;20.48;17.15;;;26.20;99.90;;;;;;5068721;28;20517;-60
2022/08/19 12:23:04;;;;;;;19.85;16.15;;;26.50;99.90;;;;;;5072515;28;20096;-60
2022/08/19 12:25:31;;;;;;;21.55;16.25;;;26.60;99.90;;;;;;5071744;28;20131;-59
2022/08/19 12:27:57;;;;;;;19.45;16.40;;;26.80;99.90;;;;;;5069125;28;20037;-60
2022/08/19 12:30:24;;;;;;;15.07;13.30;;;26.90;99.90;;;;;;5057588;28;20051;-59
2022/08/19 12:32:51;;;;;;;21.38;16.58;;;27.00;99.90;;;;;;5067721;28;20086;-60
2022/08/19 12:35:19;;;;;;;20.10;15.85;;;27.00;99.90;;;;;;5071747;28;20044;-59
2022/08/19 12:37:46;;;;;;;18.75;15.38;;;27.10;99.90;;;;;;5072055;28;20036;-60
2022/08/19 12:40:12;;;;;;;20.90;16.38;;;27.10;99.90;;;;;;5041903;28;20343;-59
2022/08/19 12:42:41;;;;;;;19.52;16.52;;;27.20;99.90;;;;;;5062253;28;20350;-60
2022/08/19 12:45:09;;;;;;;17.50;15.10;;;27.20;99.90;;;;;;5071577;28;20045;-59
2022/08/19 12:47:35;;;;;;;17.02;14.55;;;27.10;99.90;;;;;;5072102;28;20052;-60
2022/08/19 12:50:01;;;;;;;17.85;14.77;;;27.10;99.90;;;;;;5071114;28;20042;-59
2022/08/19 12:52:27;;;;;;;20.23;15.68;;;27.20;99.90;;;;;;5060846;28;20036;-60
2022/08/19 12:54:55;;;;;;;19.20;15.75;;;27.20;99.90;;;;;;5071126;28;20295;-59
2022/08/19 12:57:22;;;;;;;21.75;16.85;;;27.20;99.90;;;;;;5072274;28;20115;-59
2022/08/19 12:59:53;;;;;;;17.25;14.90;;;27.10;99.90;;;;;;5072167;28;20766;-59
2022/08/19 13:02:19;;;;;;;18.17;14.80;;;27.20;99.90;;;;;;5057359;28;20391;-59
2022/08/19 13:04:45;;;;;;;21.17;16.75;;;27.20;99.90;;;;;;5071292;28;20049;-59
2022/08/19 13:07:11;;;;;;;20.73;16.38;;;27.10;99.90;;;;;;5071515;28;20059;-59
2022/08/19 13:09:37;;;;;;;20.30;14.15;;;27.10;99.90;;;;;;5071812;28;20350;-59
2022/08/19 13:12:06;;;;;;;21.38;15.68;;;27.10;99.90;;;;;;5070339;28;20365;-59
2022/08/19 13:14:33;;;;;;;17.13;15.32;;;27.00;99.90;;;;;;5070971;28;20032;-59
2022/08/19 13:16:59;;;;;;;20.63;18.35;;;26.90;99.90;;;;;;5057357;28;20048;-59
2022/08/19 13:19:24;;;;;;;20.08;17.10;;;27.00;99.90;;;;;;5071764;28;20055;-59
2022/08/19 13:21:51;;;;;;;20.50;16.50;;;27.00;99.90;;;;;;5068245;28;20493;-60
2022/08/19 13:24:17;;;;;;;18.60;14.75;;;26.90;99.90;;;;;;5070441;28;20044;-59
2022/08/19 13:26:43;;;;;;;23.63;19.15;;;26.80;99.90;;;;;;5071128;28;20045;-59
2022/08/19 13:34:37;;;;;;;22.83;18.80;;;26.90;99.90;;;;;;5070881;28;20072;-60
2022/08/19 13:37:04;;;;;;;22.05;19.70;;;26.80;99.90;;;;;;5069922;28;20114;-59
2022/08/19 13:39:32;;;;;;;20.88;17.90;;;26.60;99.90;;;;;;5071127;28;20040;-60